sensor_id;sensor_type;location;lat;lon;timestamp;pressure;altitude;pressure_sealevel;temperature
72278;BMP280;61204;49.980;8.358;2023-02-24T00:01:35;100292.78;;;8.62
72278;BMP280;61204;49.980;8.358;2023-02-24T00:04:04;100283.72;;;8.59
72278;BMP280;61204;49.980;8.358;2023-02-24T00:06:34;100280.13;;;8.57
72278;BMP280;61204;49.980;8.358;2023-02-24T00:09:17;100289.47;;;8.54
72278;BMP280;61204;49.980;8.358;2023-02-24T00:14:21;100278.22;;;8.50
72278;BMP280;61204;49.980;8.358;2023-02-24T00:16:51;100270.59;;;8.48
72278;BMP280;61204;49.980;8.358;2023-02-24T00:19:20;100267.13;;;8.48
72278;BMP280;61204;49.980;8.358;2023-02-24T00:21:49;100261.53;;;8.46
72278;BMP280;61204;49.980;8.358;2023-02-24T00:24:21;100260.66;;;8.43
72278;BMP280;61204;49.980;8.358;2023-02-24T00:26:51;100257.91;;;8.43
72278;BMP280;61204;49.980;8.358;2023-02-24T00:29:25;100256.47;;;8.42
72278;BMP280;61204;49.980;8.358;2023-02-24T00:31:54;100256.47;;;8.42
72278;BMP280;61204;49.980;8.358;2023-02-24T00:34:26;100258.19;;;8.37
72278;BMP280;61204;49.980;8.358;2023-02-24T00:36:55;100243.50;;;8.33
72278;BMP280;61204;49.980;8.358;2023-02-24T00:39:22;100239.91;;;8.30
72278;BMP280;61204;49.980;8.358;2023-02-24T00:41:52;100242.31;;;8.26
72278;BMP280;61204;49.980;8.358;2023-02-24T00:44:22;100234.56;;;8.23
72278;BMP280;61204;49.980;8.358;2023-02-24T00:46:48;100236.56;;;8.22
72278;BMP280;61204;49.980;8.358;2023-02-24T00:49:14;100240.25;;;8.17
72278;BMP280;61204;49.980;8.358;2023-02-24T00:51:46;100237.94;;;8.13
72278;BMP280;61204;49.980;8.358;2023-02-24T00:54:14;100237.63;;;8.09
72278;BMP280;61204;49.980;8.358;2023-02-24T00:56:41;100230.41;;;8.04
72278;BMP280;61204;49.980;8.358;2023-02-24T00:59:09;100237.00;;;8.01
72278;BMP280;61204;49.980;8.358;2023-02-24T01:01:37;100238.13;;;7.98
72278;BMP280;61204;49.980;8.358;2023-02-24T01:04:04;100232.34;;;7.94
72278;BMP280;61204;49.980;8.358;2023-02-24T01:06:35;100228.78;;;7.92
72278;BMP280;61204;49.980;8.358;2023-02-24T01:09:08;100232.97;;;7.93
72278;BMP280;61204;49.980;8.358;2023-02-24T01:11:37;100229.34;;;7.90
72278;BMP280;61204;49.980;8.358;2023-02-24T01:14:23;100220.28;;;7.87
72278;BMP280;61204;49.980;8.358;2023-02-24T01:16:54;100217.66;;;7.80
72278;BMP280;61204;49.980;8.358;2023-02-24T01:19:22;100217.66;;;7.80
72278;BMP280;61204;49.980;8.358;2023-02-24T01:21:59;100210.97;;;7.73
72278;BMP280;61204;49.980;8.358;2023-02-24T01:24:36;100211.22;;;7.68
72278;BMP280;61204;49.980;8.358;2023-02-24T01:27:04;100207.63;;;7.65
72278;BMP280;61204;49.980;8.358;2023-02-24T01:29:31;100204.50;;;7.69
72278;BMP280;61204;49.980;8.358;2023-02-24T01:31:56;100206.16;;;7.64
72278;BMP280;61204;49.980;8.358;2023-02-24T01:34:22;100203.28;;;7.62
72278;BMP280;61204;49.980;8.358;2023-02-24T01:36:49;100198.38;;;7.60
72278;BMP280;61204;49.980;8.358;2023-02-24T01:39:14;100198.25;;;7.58
72278;BMP280;61204;49.980;8.358;2023-02-24T01:41:41;100191.91;;;7.56
72278;BMP280;61204;49.980;8.358;2023-02-24T01:46:42;100182.28;;;7.55
72278;BMP280;61204;49.980;8.358;2023-02-24T01:52:19;100173.59;;;7.49
72278;BMP280;61204;49.980;8.358;2023-02-24T01:54:56;100172.19;;;7.48
72278;BMP280;61204;49.980;8.358;2023-02-24T01:57:31;100156.41;;;7.46
72278;BMP280;61204;49.980;8.358;2023-02-24T02:00:00;100163.88;;;7.46
72278;BMP280;61204;49.980;8.358;2023-02-24T02:02:49;100148.03;;;7.44
72278;BMP280;61204;49.980;8.358;2023-02-24T02:05:16;100146.75;;;7.45
72278;BMP280;61204;49.980;8.358;2023-02-24T02:07:42;100145.50;;;7.46
72278;BMP280;61204;49.980;8.358;2023-02-24T02:10:10;100142.03;;;7.46
72278;BMP280;61204;49.980;8.358;2023-02-24T02:12:39;100142.19;;;7.48
72278;BMP280;61204;49.980;8.358;2023-02-24T02:15:08;100136.03;;;7.47
72278;BMP280;61204;49.980;8.358;2023-02-24T02:17:55;100130.56;;;7.47
72278;BMP280;61204;49.980;8.358;2023-02-24T02:21:01;100127.66;;;7.45
72278;BMP280;61204;49.980;8.358;2023-02-24T02:23:53;100127.66;;;7.45
72278;BMP280;61204;49.980;8.358;2023-02-24T02:26:34;100129.13;;;7.46
72278;BMP280;61204;49.980;8.358;2023-02-24T02:34:49;100124.50;;;7.49
72278;BMP280;61204;49.980;8.358;2023-02-24T02:40:21;100124.22;;;7.45
72278;BMP280;61204;49.980;8.358;2023-02-24T02:46:05;100115.78;;;7.50
72278;BMP280;61204;49.980;8.358;2023-02-24T02:48:48;100116.25;;;7.56
72278;BMP280;61204;49.980;8.358;2023-02-24T02:51:24;100115.69;;;7.58
72278;BMP280;61204;49.980;8.358;2023-02-24T02:56:47;100127.38;;;7.68
72278;BMP280;61204;49.980;8.358;2023-02-24T02:59:21;100128.50;;;7.65
72278;BMP280;61204;49.980;8.358;2023-02-24T03:01:52;100116.00;;;7.62
72278;BMP280;61204;49.980;8.358;2023-02-24T03:04:35;100121.28;;;7.60
72278;BMP280;61204;49.980;8.358;2023-02-24T03:07:06;100121.28;;;7.60
72278;BMP280;61204;49.980;8.358;2023-02-24T03:09:39;100115.09;;;7.59
72278;BMP280;61204;49.980;8.358;2023-02-24T03:12:09;100111.50;;;7.57
72278;BMP280;61204;49.980;8.358;2023-02-24T03:14:42;100115.53;;;7.56
72278;BMP280;61204;49.980;8.358;2023-02-24T03:17:18;100114.81;;;7.55
72278;BMP280;61204;49.980;8.358;2023-02-24T03:19:49;100107.34;;;7.56
72278;BMP280;61204;49.980;8.358;2023-02-24T03:22:35;100099.00;;;7.54
72278;BMP280;61204;49.980;8.358;2023-02-24T03:25:15;100102.28;;;7.52
72278;BMP280;61204;49.980;8.358;2023-02-24T03:27:49;100089.22;;;7.51
72278;BMP280;61204;49.980;8.358;2023-02-24T03:30:26;100090.50;;;7.50
72278;BMP280;61204;49.980;8.358;2023-02-24T03:33:03;100091.78;;;7.49
72278;BMP280;61204;49.980;8.358;2023-02-24T03:35:48;100085.06;;;7.50
72278;BMP280;61204;49.980;8.358;2023-02-24T03:38:20;100076.13;;;7.49
72278;BMP280;61204;49.980;8.358;2023-02-24T03:40:48;100085.06;;;7.50
72278;BMP280;61204;49.980;8.358;2023-02-24T03:43:17;100080.88;;;7.49
72278;BMP280;61204;49.980;8.358;2023-02-24T03:45:50;100083.19;;;7.52
72278;BMP280;61204;49.980;8.358;2023-02-24T03:48:16;100080.63;;;7.54
72278;BMP280;61204;49.980;8.358;2023-02-24T03:50:43;100071.56;;;7.52
72278;BMP280;61204;49.980;8.358;2023-02-24T04:01:53;100072.84;;;7.51
72278;BMP280;61204;49.980;8.358;2023-02-24T04:04:35;100063.09;;;7.48
72278;BMP280;61204;49.980;8.358;2023-02-24T04:07:13;100059.63;;;7.47
72278;BMP280;61204;49.980;8.358;2023-02-24T04:10:06;100062.38;;;7.47
72278;BMP280;61204;49.980;8.358;2023-02-24T04:12:52;100058.31;;;7.48
72278;BMP280;61204;49.980;8.358;2023-02-24T04:15:30;100056.03;;;7.45
72278;BMP280;61204;49.980;8.358;2023-02-24T04:18:22;100050.44;;;7.43
72278;BMP280;61204;49.980;8.358;2023-02-24T04:20:54;100053.69;;;7.41
72278;BMP280;61204;49.980;8.358;2023-02-24T04:23:25;100044.81;;;7.41
72278;BMP280;61204;49.980;8.358;2023-02-24T04:25:58;100045.38;;;7.39
72278;BMP280;61204;49.980;8.358;2023-02-24T04:28:25;100038.47;;;7.38
72278;BMP280;61204;49.980;8.358;2023-02-24T04:30:56;100043.19;;;7.37
72278;BMP280;61204;49.980;8.358;2023-02-24T04:33:30;100033.56;;;7.36
72278;BMP280;61204;49.980;8.358;2023-02-24T04:35:57;100032.47;;;7.40
72278;BMP280;61204;49.980;8.358;2023-02-24T04:38:23;100026.44;;;7.41
72278;BMP280;61204;49.980;8.358;2023-02-24T04:40:49;100017.38;;;7.38
72278;BMP280;61204;49.980;8.358;2023-02-24T04:43:17;100004.28;;;7.37
72278;BMP280;61204;49.980;8.358;2023-02-24T04:45:45;100000.75;;;7.34
72278;BMP280;61204;49.980;8.358;2023-02-24T04:48:10;100000.00;;;7.34
72278;BMP280;61204;49.980;8.358;2023-02-24T04:50:40;99996.41;;;7.31
72278;BMP280;61204;49.980;8.358;2023-02-24T04:53:11;99992.78;;;7.29
72278;BMP280;61204;49.980;8.358;2023-02-24T04:55:41;99989.34;;;7.28
72278;BMP280;61204;49.980;8.358;2023-02-24T04:58:13;99987.03;;;7.25
72278;BMP280;61204;49.980;8.358;2023-02-24T05:00:49;99978.69;;;7.23
72278;BMP280;61204;49.980;8.358;2023-02-24T05:03:17;99980.00;;;7.22
72278;BMP280;61204;49.980;8.358;2023-02-24T05:05:54;99981.84;;;7.19
72278;BMP280;61204;49.980;8.358;2023-02-24T05:08:26;99962.28;;;7.13
72278;BMP280;61204;49.980;8.358;2023-02-24T05:10:53;99966.31;;;7.12
72278;BMP280;61204;49.980;8.358;2023-02-24T05:13:28;99973.03;;;7.11
72278;BMP280;61204;49.980;8.358;2023-02-24T05:15:57;99969.16;;;7.14
72278;BMP280;61204;49.980;8.358;2023-02-24T05:18:31;99960.28;;;7.14
72278;BMP280;61204;49.980;8.358;2023-02-24T05:21:03;99953.97;;;7.11
72278;BMP280;61204;49.980;8.358;2023-02-24T05:23:53;99960.88;;;7.12
72278;BMP280;61204;49.980;8.358;2023-02-24T05:26:20;99959.69;;;7.15
72278;BMP280;61204;49.980;8.358;2023-02-24T05:28:51;99956.97;;;7.15
72278;BMP280;61204;49.980;8.358;2023-02-24T05:31:24;99965.16;;;7.15
72278;BMP280;61204;49.980;8.358;2023-02-24T05:33:53;99966.75;;;7.18
72278;BMP280;61204;49.980;8.358;2023-02-24T05:36:24;99956.97;;;7.15
72278;BMP280;61204;49.980;8.358;2023-02-24T05:38:54;99948.66;;;7.13
72278;BMP280;61204;49.980;8.358;2023-02-24T05:41:30;99956.84;;;7.13
72278;BMP280;61204;49.980;8.358;2023-02-24T05:44:04;99952.41;;;7.18
72278;BMP280;61204;49.980;8.358;2023-02-24T05:46:34;99958.63;;;7.28
72278;BMP280;61204;49.980;8.358;2023-02-24T05:49:05;99947.44;;;7.24
72278;BMP280;61204;49.980;8.358;2023-02-24T05:51:38;99953.72;;;7.26
72278;BMP280;61204;49.980;8.358;2023-02-24T05:54:08;99954.31;;;7.25
72278;BMP280;61204;49.980;8.358;2023-02-24T05:56:40;99946.13;;;7.25
72278;BMP280;61204;49.980;8.358;2023-02-24T05:59:08;99947.44;;;7.24
72278;BMP280;61204;49.980;8.358;2023-02-24T06:01:37;99939.66;;;7.20
72278;BMP280;61204;49.980;8.358;2023-02-24T06:04:10;99944.13;;;7.25
72278;BMP280;61204;49.980;8.358;2023-02-24T06:06:45;99946.28;;;7.27
72278;BMP280;61204;49.980;8.358;2023-02-24T06:09:16;99947.47;;;7.33
72278;BMP280;61204;49.980;8.358;2023-02-24T06:11:47;99946.91;;;7.35
72278;BMP280;61204;49.980;8.358;2023-02-24T06:14:13;99944.00;;;7.33
72278;BMP280;61204;49.980;8.358;2023-02-24T06:16:40;99940.13;;;7.36
72278;BMP280;61204;49.980;8.358;2023-02-24T06:19:08;99941.03;;;7.38
72278;BMP280;61204;49.980;8.358;2023-02-24T06:21:36;99938.28;;;7.38
72278;BMP280;61204;49.980;8.358;2023-02-24T06:24:10;99937.72;;;7.40
72278;BMP280;61204;49.980;8.358;2023-02-24T06:26:39;99942.28;;;7.37
72278;BMP280;61204;49.980;8.358;2023-02-24T06:29:10;99945.44;;;7.34
72278;BMP280;61204;49.980;8.358;2023-02-24T06:31:38;99942.41;;;7.30
72278;BMP280;61204;49.980;8.358;2023-02-24T06:34:07;99939.38;;;7.26
72278;BMP280;61204;49.980;8.358;2023-02-24T06:36:38;99939.25;;;7.24
72278;BMP280;61204;49.980;8.358;2023-02-24T06:39:04;99941.56;;;7.27
72278;BMP280;61204;49.980;8.358;2023-02-24T06:41:37;99936.66;;;7.26
72278;BMP280;61204;49.980;8.358;2023-02-24T06:44:02;99942.69;;;7.24
72278;BMP280;61204;49.980;8.358;2023-02-24T06:46:28;99948.28;;;7.26
72278;BMP280;61204;49.980;8.358;2023-02-24T06:48:55;99946.31;;;7.36
72278;BMP280;61204;49.980;8.358;2023-02-24T06:51:22;99945.75;;;7.38
72278;BMP280;61204;49.980;8.358;2023-02-24T06:53:49;99944.59;;;7.41
72278;BMP280;61204;49.980;8.358;2023-02-24T06:56:16;99939.56;;;7.37
72278;BMP280;61204;49.980;8.358;2023-02-24T06:58:44;99931.53;;;7.40
72278;BMP280;61204;49.980;8.358;2023-02-24T07:01:18;99932.84;;;7.38
72278;BMP280;61204;49.980;8.358;2023-02-24T07:03:49;99929.53;;;7.40
72278;BMP280;61204;49.980;8.358;2023-02-24T07:06:37;99934.28;;;7.49
72278;BMP280;61204;49.980;8.358;2023-02-24T07:09:06;99939.63;;;7.57
72278;BMP280;61204;49.980;8.358;2023-02-24T07:11:38;99942.25;;;7.64
72278;BMP280;61204;49.980;8.358;2023-02-24T07:14:07;99942.41;;;7.67
72278;BMP280;61204;49.980;8.358;2023-02-24T07:16:35;99947.84;;;7.67
72278;BMP280;61204;49.980;8.358;2023-02-24T07:19:05;99946.25;;;7.63
72278;BMP280;61204;49.980;8.358;2023-02-24T07:21:38;99946.84;;;7.62
72278;BMP280;61204;49.980;8.358;2023-02-24T07:24:13;99944.09;;;7.62
72278;BMP280;61204;49.980;8.358;2023-02-24T07:27:00;99942.97;;;7.65
72278;BMP280;61204;49.980;8.358;2023-02-24T07:29:35;99942.72;;;7.71
72278;BMP280;61204;49.980;8.358;2023-02-24T07:32:02;99940.13;;;7.73
72278;BMP280;61204;49.980;8.358;2023-02-24T07:34:32;99934.09;;;7.84
72278;BMP280;61204;49.980;8.358;2023-02-24T07:36:58;99935.97;;;7.81
72278;BMP280;61204;49.980;8.358;2023-02-24T07:39:30;99926.38;;;7.80
72278;BMP280;61204;49.980;8.358;2023-02-24T07:41:56;99925.06;;;7.81
72278;BMP280;61204;49.980;8.358;2023-02-24T07:44:23;99914.41;;;7.85
72278;BMP280;61204;49.980;8.358;2023-02-24T07:46:49;99917.63;;;7.92
72278;BMP280;61204;49.980;8.358;2023-02-24T07:49:19;99918.59;;;7.96
72278;BMP280;61204;49.980;8.358;2023-02-24T07:51:50;99918.19;;;8.00
72278;BMP280;61204;49.980;8.358;2023-02-24T07:54:22;99913.88;;;8.06
72278;BMP280;61204;49.980;8.358;2023-02-24T07:56:49;99919.22;;;8.14
72278;BMP280;61204;49.980;8.358;2023-02-24T07:59:25;99932.41;;;8.27
72278;BMP280;61204;49.980;8.358;2023-02-24T08:01:54;99930.97;;;8.26
72278;BMP280;61204;49.980;8.358;2023-02-24T08:04:23;99926.50;;;8.31
72278;BMP280;61204;49.980;8.358;2023-02-24T08:06:52;99933.13;;;8.37
72278;BMP280;61204;49.980;8.358;2023-02-24T08:09:25;99927.78;;;8.39
72278;BMP280;61204;49.980;8.358;2023-02-24T08:12:19;99919.88;;;8.43
72278;BMP280;61204;49.980;8.358;2023-02-24T08:14:47;99921.75;;;8.51
72278;BMP280;61204;49.980;8.358;2023-02-24T08:17:18;99922.88;;;8.67
72278;BMP280;61204;49.980;8.358;2023-02-24T08:19:51;99920.56;;;8.73
72278;BMP280;61204;49.980;8.358;2023-02-24T08:22:37;99930.28;;;8.95
72278;BMP280;61204;49.980;8.358;2023-02-24T08:25:08;99941.03;;;9.03
72278;BMP280;61204;49.980;8.358;2023-02-24T08:27:42;99936.28;;;9.04
72278;BMP280;61204;49.980;8.358;2023-02-24T08:30:09;99926.81;;;9.05
72278;BMP280;61204;49.980;8.358;2023-02-24T08:32:52;99926.66;;;9.03
72278;BMP280;61204;49.980;8.358;2023-02-24T08:35:30;99920.13;;;9.08
72278;BMP280;61204;49.980;8.358;2023-02-24T08:38:19;99922.97;;;9.19
72278;BMP280;61204;49.980;8.358;2023-02-24T08:40:50;99925.56;;;9.17
72278;BMP280;61204;49.980;8.358;2023-02-24T08:48:40;99907.03;;;9.37
72278;BMP280;61204;49.980;8.358;2023-02-24T08:53:56;99910.72;;;9.51
72278;BMP280;61204;49.980;8.358;2023-02-24T08:56:43;99909.53;;;9.55
72278;BMP280;61204;49.980;8.358;2023-02-24T08:59:19;99902.69;;;9.44
72278;BMP280;61204;49.980;8.358;2023-02-24T09:02:01;99896.38;;;9.63
72278;BMP280;61204;49.980;8.358;2023-02-24T09:04:57;99891.69;;;9.53
72278;BMP280;61204;49.980;8.358;2023-02-24T09:09:59;99895.66;;;9.62
72278;BMP280;61204;49.980;8.358;2023-02-24T09:12:27;99899.53;;;9.69
72278;BMP280;61204;49.980;8.358;2023-02-24T09:14:58;99895.22;;;9.66
72278;BMP280;61204;49.980;8.358;2023-02-24T09:17:29;99890.25;;;9.74
72278;BMP280;61204;49.980;8.358;2023-02-24T09:20:08;99890.09;;;9.93
72278;BMP280;61204;49.980;8.358;2023-02-24T09:22:58;99893.50;;;10.03
72278;BMP280;61204;49.980;8.358;2023-02-24T09:25:30;99900.91;;;10.24
72278;BMP280;61204;49.980;8.358;2023-02-24T09:36:00;99882.28;;;10.44
72278;BMP280;61204;49.980;8.358;2023-02-24T09:38:37;99871.59;;;10.60
72278;BMP280;61204;49.980;8.358;2023-02-24T09:44:34;99867.06;;;10.65
72278;BMP280;61204;49.980;8.358;2023-02-24T09:49:59;99860.94;;;10.66
72278;BMP280;61204;49.980;8.358;2023-02-24T09:53:10;99861.69;;;11.02
72278;BMP280;61204;49.980;8.358;2023-02-24T09:56:00;99864.78;;;10.96
72278;BMP280;61204;49.980;8.358;2023-02-24T10:04:24;99858.34;;;10.92
72278;BMP280;61204;49.980;8.358;2023-02-24T10:10:06;99844.53;;;11.01
72278;BMP280;61204;49.980;8.358;2023-02-24T10:12:44;99843.41;;;11.06
72278;BMP280;61204;49.980;8.358;2023-02-24T10:15:17;99837.72;;;11.02
72278;BMP280;61204;49.980;8.358;2023-02-24T10:21:52;99825.72;;;11.33
72278;BMP280;61204;49.980;8.358;2023-02-24T10:24:36;99828.97;;;11.17
72278;BMP280;61204;49.980;8.358;2023-02-24T10:27:32;99828.38;;;11.19
72278;BMP280;61204;49.980;8.358;2023-02-24T10:30:33;99818.38;;;11.12
72278;BMP280;61204;49.980;8.358;2023-02-24T10:33:48;99816.19;;;11.22
72278;BMP280;61204;49.980;8.358;2023-02-24T10:36:21;99807.44;;;11.37
72278;BMP280;61204;49.980;8.358;2023-02-24T10:39:13;99808.81;;;11.76
72278;BMP280;61204;49.980;8.358;2023-02-24T10:41:55;99798.44;;;12.13
72278;BMP280;61204;49.980;8.358;2023-02-24T10:44:25;99796.13;;;12.90
72278;BMP280;61204;49.980;8.358;2023-02-24T10:47:04;99794.22;;;13.08
72278;BMP280;61204;49.980;8.358;2023-02-24T10:49:44;99791.31;;;12.91
72278;BMP280;61204;49.980;8.358;2023-02-24T10:52:23;99786.06;;;12.67
72278;BMP280;61204;49.980;8.358;2023-02-24T10:55:35;99788.59;;;12.36
72278;BMP280;61204;49.980;8.358;2023-02-24T10:58:15;99783.19;;;12.24
72278;BMP280;61204;49.980;8.358;2023-02-24T11:01:25;99779.81;;;12.25
72278;BMP280;61204;49.980;8.358;2023-02-24T11:04:19;99766.72;;;12.24
72278;BMP280;61204;49.980;8.358;2023-02-24T11:07:00;99763.84;;;12.36
72278;BMP280;61204;49.980;8.358;2023-02-24T11:09:35;99753.88;;;12.42
72278;BMP280;61204;49.980;8.358;2023-02-24T11:12:21;99753.19;;;12.99
72278;BMP280;61204;49.980;8.358;2023-02-24T11:15:16;99753.94;;;13.60
72278;BMP280;61204;49.980;8.358;2023-02-24T11:18:05;99740.72;;;13.72
72278;BMP280;61204;49.980;8.358;2023-02-24T11:23:34;99731.88;;;13.29
72278;BMP280;61204;49.980;8.358;2023-02-24T11:31:31;99715.34;;;12.83
72278;BMP280;61204;49.980;8.358;2023-02-24T11:40:11;99700.00;;;14.36
72278;BMP280;61204;49.980;8.358;2023-02-24T11:45:26;99694.72;;;14.76
72278;BMP280;61204;49.980;8.358;2023-02-24T11:53:14;99673.78;;;14.88
72278;BMP280;61204;49.980;8.358;2023-02-24T11:56:08;99655.59;;;15.19
72278;BMP280;61204;49.980;8.358;2023-02-24T12:01:29;99638.19;;;14.41
72278;BMP280;61204;49.980;8.358;2023-02-24T12:04:28;99629.72;;;13.86
72278;BMP280;61204;49.980;8.358;2023-02-24T12:09:56;99624.88;;;13.37
72278;BMP280;61204;49.980;8.358;2023-02-24T12:15:25;99628.88;;;13.18
72278;BMP280;61204;49.980;8.358;2023-02-24T12:17:58;99613.97;;;12.78
72278;BMP280;61204;49.980;8.358;2023-02-24T12:20:51;99603.94;;;12.69
72278;BMP280;61204;49.980;8.358;2023-02-24T12:23:39;99603.25;;;12.84
72278;BMP280;61204;49.980;8.358;2023-02-24T12:26:22;99597.97;;;13.20
72278;BMP280;61204;49.980;8.358;2023-02-24T12:28:58;99603.13;;;13.43
72278;BMP280;61204;49.980;8.358;2023-02-24T12:32:31;99579.06;;;13.59
72278;BMP280;61204;49.980;8.358;2023-02-24T12:35:27;99577.03;;;13.44
72278;BMP280;61204;49.980;8.358;2023-02-24T12:43:57;99561.66;;;12.92
72278;BMP280;61204;49.980;8.358;2023-02-24T12:46:34;99568.91;;;12.69
72278;BMP280;61204;49.980;8.358;2023-02-24T13:06:49;99540.53;;;12.80
72278;BMP280;61204;49.980;8.358;2023-02-24T13:14:56;99513.41;;;12.43
72278;BMP280;61204;49.980;8.358;2023-02-24T13:17:22;99515.75;;;12.49
72278;BMP280;61204;49.980;8.358;2023-02-24T13:19:53;99507.59;;;12.67
72278;BMP280;61204;49.980;8.358;2023-02-24T13:25:00;99502.16;;;12.53
72278;BMP280;61204;49.980;8.358;2023-02-24T13:27:43;99495.72;;;12.33
72278;BMP280;61204;49.980;8.358;2023-02-24T13:35:47;99498.78;;;12.54
72278;BMP280;61204;49.980;8.358;2023-02-24T13:41:04;99476.63;;;12.50
72278;BMP280;61204;49.980;8.358;2023-02-24T13:47:04;99472.78;;;12.42
72278;BMP280;61204;49.980;8.358;2023-02-24T13:58:51;99463.19;;;12.27
72278;BMP280;61204;49.980;8.358;2023-02-24T14:01:57;99464.81;;;12.02
72278;BMP280;61204;49.980;8.358;2023-02-24T14:04:31;99471.38;;;12.11
72278;BMP280;61204;49.980;8.358;2023-02-24T14:07:02;99466.28;;;12.19
72278;BMP280;61204;49.980;8.358;2023-02-24T14:09:44;99466.53;;;12.25
72278;BMP280;61204;49.980;8.358;2023-02-24T14:12:35;99461.03;;;12.25
72278;BMP280;61204;49.980;8.358;2023-02-24T14:15:01;99458.22;;;12.23
72278;BMP280;61204;49.980;8.358;2023-02-24T14:17:32;99458.03;;;12.19
72278;BMP280;61204;49.980;8.358;2023-02-24T14:22:48;99447.19;;;12.08
72278;BMP280;61204;49.980;8.358;2023-02-24T14:25:20;99445.75;;;12.07
72278;BMP280;61204;49.980;8.358;2023-02-24T14:27:48;99437.50;;;12.07
72278;BMP280;61204;49.980;8.358;2023-02-24T14:33:04;99433.75;;;11.84
72278;BMP280;61204;49.980;8.358;2023-02-24T14:35:33;99427.97;;;11.64
72278;BMP280;61204;49.980;8.358;2023-02-24T14:38:16;99436.50;;;11.70
72278;BMP280;61204;49.980;8.358;2023-02-24T14:40:59;99425.25;;;11.64
72278;BMP280;61204;49.980;8.358;2023-02-24T14:43:27;99427.50;;;11.54
72278;BMP280;61204;49.980;8.358;2023-02-24T14:45:53;99427.38;;;11.52
72278;BMP280;61204;49.980;8.358;2023-02-24T14:48:25;99422.91;;;11.45
72278;BMP280;61204;49.980;8.358;2023-02-24T14:50:58;99420.56;;;11.53
72278;BMP280;61204;49.980;8.358;2023-02-24T14:53:33;99418.44;;;11.65
72278;BMP280;61204;49.980;8.358;2023-02-24T14:56:07;99411.50;;;11.64
72278;BMP280;61204;49.980;8.358;2023-02-24T14:58:41;99408.16;;;11.52
72278;BMP280;61204;49.980;8.358;2023-02-24T15:03:57;99405.63;;;11.56
72278;BMP280;61204;49.980;8.358;2023-02-24T15:06:34;99398.53;;;11.51
72278;BMP280;61204;49.980;8.358;2023-02-24T15:09:24;99409.72;;;11.41
72278;BMP280;61204;49.980;8.358;2023-02-24T15:11:58;99408.28;;;11.54
72278;BMP280;61204;49.980;8.358;2023-02-24T15:14:52;99395.09;;;11.51
72278;BMP280;61204;49.980;8.358;2023-02-24T15:17:40;99397.19;;;11.52
72278;BMP280;61204;49.980;8.358;2023-02-24T15:22:59;99391.72;;;11.38
72278;BMP280;61204;49.980;8.358;2023-02-24T15:25:27;99386.03;;;11.48
72278;BMP280;61204;49.980;8.358;2023-02-24T15:28:22;99380.84;;;11.54
72278;BMP280;61204;49.980;8.358;2023-02-24T15:33:42;99373.25;;;11.39
72278;BMP280;61204;49.980;8.358;2023-02-24T15:36:17;99369.69;;;11.36
72278;BMP280;61204;49.980;8.358;2023-02-24T15:38:49;99373.88;;;11.24
72278;BMP280;61204;49.980;8.358;2023-02-24T15:41:18;99374.28;;;11.04
72278;BMP280;61204;49.980;8.358;2023-02-24T15:43:46;99372.34;;;10.93
72278;BMP280;61204;49.980;8.358;2023-02-24T15:48:44;99361.91;;;10.89
72278;BMP280;61204;49.980;8.358;2023-02-24T15:51:21;99363.63;;;10.97
72278;BMP280;61204;49.980;8.358;2023-02-24T15:54:04;99362.31;;;10.84
72278;BMP280;61204;49.980;8.358;2023-02-24T15:56:35;99366.03;;;10.63
72278;BMP280;61204;49.980;8.358;2023-02-24T15:59:01;99360.66;;;10.65
72278;BMP280;61204;49.980;8.358;2023-02-24T16:01:28;99358.00;;;10.53
72278;BMP280;61204;49.980;8.358;2023-02-24T16:03:57;99355.88;;;10.52
72278;BMP280;61204;49.980;8.358;2023-02-24T16:06:24;99349.56;;;10.49
72278;BMP280;61204;49.980;8.358;2023-02-24T16:08:52;99348.25;;;10.50
72278;BMP280;61204;49.980;8.358;2023-02-24T16:11:23;99352.41;;;10.51
72278;BMP280;61204;49.980;8.358;2023-02-24T16:13:54;99344.19;;;10.51
72278;BMP280;61204;49.980;8.358;2023-02-24T16:16:23;99348.00;;;10.32
72278;BMP280;61204;49.980;8.358;2023-02-24T16:18:51;99350.13;;;10.20
72278;BMP280;61204;49.980;8.358;2023-02-24T16:21:17;99345.84;;;10.17
72278;BMP280;61204;49.980;8.358;2023-02-24T16:23:43;99338.66;;;9.98
72278;BMP280;61204;49.980;8.358;2023-02-24T16:26:16;99339.63;;;10.03
72278;BMP280;61204;49.980;8.358;2023-02-24T16:28:50;99348.66;;;10.05
72278;BMP280;61204;49.980;8.358;2023-02-24T16:31:21;99341.91;;;9.95
72278;BMP280;61204;49.980;8.358;2023-02-24T16:33:50;99357.53;;;9.92
72278;BMP280;61204;49.980;8.358;2023-02-24T16:36:16;99346.28;;;10.00
72278;BMP280;61204;49.980;8.358;2023-02-24T16:38:42;99349.13;;;9.88
72278;BMP280;61204;49.980;8.358;2023-02-24T16:41:09;99356.63;;;9.76
72278;BMP280;61204;49.980;8.358;2023-02-24T16:43:37;99354.44;;;9.61
72278;BMP280;61204;49.980;8.358;2023-02-24T16:46:04;99361.47;;;9.52
72278;BMP280;61204;49.980;8.358;2023-02-24T16:48:34;99362.69;;;9.37
72278;BMP280;61204;49.980;8.358;2023-02-24T16:51:05;99355.44;;;9.30
72278;BMP280;61204;49.980;8.358;2023-02-24T16:53:32;99359.59;;;9.19
72278;BMP280;61204;49.980;8.358;2023-02-24T16:55:58;99368.19;;;9.02
72278;BMP280;61204;49.980;8.358;2023-02-24T16:58:24;99366.78;;;8.89
72278;BMP280;61204;49.980;8.358;2023-02-24T17:00:52;99382.31;;;8.87
72278;BMP280;61204;49.980;8.358;2023-02-24T17:03:24;99375.31;;;8.72
72278;BMP280;61204;49.980;8.358;2023-02-24T17:05:56;99375.78;;;8.68
72278;BMP280;61204;49.980;8.358;2023-02-24T17:08:21;99384.53;;;8.43
72278;BMP280;61204;49.980;8.358;2023-02-24T17:10:49;99374.50;;;8.25
72278;BMP280;61204;49.980;8.358;2023-02-24T17:13:18;99383.47;;;8.15
72278;BMP280;61204;49.980;8.358;2023-02-24T17:15:46;99383.13;;;8.21
72278;BMP280;61204;49.980;8.358;2023-02-24T17:18:11;99382.66;;;8.13
72278;BMP280;61204;49.980;8.358;2023-02-24T17:20:38;99377.47;;;7.96
72278;BMP280;61204;49.980;8.358;2023-02-24T17:23:06;99377.03;;;7.78
72278;BMP280;61204;49.980;8.358;2023-02-24T17:25:33;99378.34;;;7.77
72278;BMP280;61204;49.980;8.358;2023-02-24T17:27:59;99389.19;;;7.65
72278;BMP280;61204;49.980;8.358;2023-02-24T17:30:28;99387.16;;;7.66
72278;BMP280;61204;49.980;8.358;2023-02-24T17:32:57;99383.50;;;7.51
72278;BMP280;61204;49.980;8.358;2023-02-24T17:35:23;99395.28;;;7.54
72278;BMP280;61204;49.980;8.358;2023-02-24T17:37:50;99392.28;;;7.50
72278;BMP280;61204;49.980;8.358;2023-02-24T17:40:17;99389.06;;;7.32
72278;BMP280;61204;49.980;8.358;2023-02-24T17:42:43;99394.19;;;7.37